createdAt,value
2018-10-07T00:00:28.897Z,24.60
2018-10-07T00:02:58.257Z,24.50
2018-10-07T00:05:27.657Z,24.60
2018-10-07T00:07:57.072Z,24.50
2018-10-07T00:10:26.462Z,24.50
2018-10-07T00:12:55.868Z,24.50
2018-10-07T00:15:25.243Z,24.50
2018-10-07T00:17:54.637Z,24.50
2018-10-07T00:20:24.005Z,24.50
2018-10-07T00:22:53.397Z,24.50
2018-10-07T00:25:22.804Z,24.50
2018-10-07T00:27:52.136Z,24.50
2018-10-07T00:30:21.488Z,24.50
2018-10-07T00:32:50.843Z,24.50
2018-10-07T00:35:20.264Z,24.50
2018-10-07T00:37:49.629Z,24.50
2018-10-07T00:40:19.006Z,24.50
2018-10-07T00:42:48.395Z,24.50
2018-10-07T00:45:17.744Z,24.50
2018-10-07T00:47:47.109Z,24.50
2018-10-07T00:50:16.478Z,24.50
2018-10-07T00:52:45.856Z,24.40
2018-10-07T00:55:15.249Z,24.50
2018-10-07T00:57:44.607Z,24.50
2018-10-07T01:00:13.972Z,24.50
2018-10-07T01:02:43.349Z,24.40
2018-10-07T01:05:12.721Z,24.50
2018-10-07T01:07:42.091Z,24.50
2018-10-07T01:10:11.486Z,24.50
2018-10-07T01:12:40.876Z,24.40
2018-10-07T01:15:10.329Z,24.40
2018-10-07T01:17:39.726Z,24.30
2018-10-07T01:20:09.143Z,24.30
2018-10-07T01:22:38.538Z,24.30
2018-10-07T01:25:07.968Z,24.30
2018-10-07T01:27:37.340Z,24.30
2018-10-07T01:30:07.172Z,24.30
2018-10-07T01:32:36.528Z,24.30
2018-10-07T01:35:06.012Z,24.30
2018-10-07T01:37:35.368Z,24.30
2018-10-07T01:40:04.831Z,24.20
2018-10-07T01:42:34.222Z,24.20
2018-10-07T01:45:03.573Z,24.10
2018-10-07T01:47:32.918Z,24.10
2018-10-07T01:50:02.327Z,24.20
2018-10-07T01:52:31.650Z,24.10
2018-10-07T01:55:01.022Z,24.10
2018-10-07T01:57:30.407Z,24.10
2018-10-07T01:59:59.800Z,24.10
2018-10-07T02:02:29.199Z,24.10
2018-10-07T02:04:58.588Z,24.10
2018-10-07T02:07:27.980Z,24.10
2018-10-07T02:09:57.408Z,24.10
2018-10-07T02:12:26.786Z,24.10
2018-10-07T02:14:56.213Z,24.10
2018-10-07T02:17:25.559Z,24.10
2018-10-07T02:19:54.904Z,24.00
2018-10-07T02:22:24.302Z,24.00
2018-10-07T02:24:53.703Z,24.00
2018-10-07T02:27:23.068Z,24.00
2018-10-07T02:29:52.445Z,24.00
2018-10-07T02:32:21.811Z,24.00
2018-10-07T02:34:51.183Z,24.00
2018-10-07T02:37:20.548Z,24.00
2018-10-07T02:39:49.912Z,24.00
2018-10-07T02:42:19.331Z,24.00
2018-10-07T02:44:48.695Z,24.00
2018-10-07T02:47:18.170Z,24.00
2018-10-07T02:49:47.537Z,24.00
2018-10-07T02:52:21.016Z,23.90
2018-10-07T02:54:50.516Z,23.90
2018-10-07T02:57:20.080Z,23.90
2018-10-07T02:59:50.340Z,23.90
2018-10-07T03:02:19.794Z,23.90
2018-10-07T03:04:49.247Z,23.90
2018-10-07T03:07:18.707Z,23.90
2018-10-07T03:09:48.108Z,23.90
2018-10-07T03:12:17.476Z,23.90
2018-10-07T03:14:46.847Z,23.90
2018-10-07T03:17:16.203Z,23.90
2018-10-07T03:19:45.585Z,23.80
2018-10-07T03:22:14.968Z,23.80
2018-10-07T03:24:44.348Z,23.80
2018-10-07T03:27:13.768Z,23.80
2018-10-07T03:29:43.163Z,23.80
2018-10-07T03:32:12.600Z,23.80
2018-10-07T03:34:42.053Z,23.70
2018-10-07T03:37:11.428Z,23.70
2018-10-07T03:39:40.779Z,23.80
2018-10-07T03:42:10.156Z,23.80
2018-10-07T03:44:39.516Z,23.80
2018-10-07T03:47:08.922Z,23.70
2018-10-07T03:49:38.609Z,23.70
2018-10-07T03:52:08.206Z,23.70
2018-10-07T03:54:37.585Z,23.70
2018-10-07T03:57:07.105Z,23.70
2018-10-07T03:59:36.521Z,23.70
2018-10-07T04:02:06.010Z,23.70
2018-10-07T04:04:35.447Z,23.70
2018-10-07T04:07:04.876Z,23.70
2018-10-07T04:09:34.212Z,23.70
2018-10-07T04:12:03.653Z,23.70
2018-10-07T04:14:32.986Z,23.60
2018-10-07T04:17:02.415Z,23.60
2018-10-07T04:19:31.753Z,23.60
2018-10-07T04:22:01.108Z,23.60
2018-10-07T04:24:31.968Z,23.60
2018-10-07T04:27:01.344Z,23.60
2018-10-07T04:29:30.732Z,23.60
2018-10-07T04:32:00.126Z,23.60
2018-10-07T04:34:29.509Z,23.60
2018-10-07T04:36:58.903Z,23.60
2018-10-07T04:39:28.281Z,23.60
2018-10-07T04:41:57.628Z,23.50
2018-10-07T04:44:27.039Z,23.50
2018-10-07T04:46:56.428Z,23.50
2018-10-07T04:49:25.835Z,23.50
2018-10-07T04:51:55.146Z,23.50
2018-10-07T04:54:24.597Z,23.50
2018-10-07T04:56:53.969Z,23.50
2018-10-07T04:59:23.344Z,23.40
2018-10-07T05:01:52.761Z,23.40
2018-10-07T05:04:22.167Z,23.40
2018-10-07T05:06:51.794Z,23.40
2018-10-07T05:09:21.193Z,23.40
2018-10-07T05:11:50.943Z,23.40
2018-10-07T05:14:20.415Z,23.40
2018-10-07T05:16:51.910Z,23.40
2018-10-07T05:19:21.521Z,23.40
2018-10-07T05:21:50.984Z,23.40
2018-10-07T05:24:20.422Z,23.30
2018-10-07T05:26:49.820Z,23.40
2018-10-07T05:29:19.235Z,23.40
2018-10-07T05:31:48.613Z,23.40
2018-10-07T05:34:17.992Z,23.40
2018-10-07T05:36:47.335Z,23.30
2018-10-07T05:39:16.741Z,23.30
2018-10-07T05:41:46.072Z,23.30
2018-10-07T05:44:15.551Z,23.30
2018-10-07T05:46:44.970Z,23.30
2018-10-07T05:49:14.316Z,23.20
2018-10-07T05:51:43.729Z,23.20
2018-10-07T05:54:13.069Z,23.20
2018-10-07T05:56:42.424Z,23.20
2018-10-07T05:59:12.027Z,23.20
2018-10-07T06:01:43.058Z,23.30
2018-10-07T06:04:50.872Z,23.20
2018-10-07T06:07:20.924Z,23.20
2018-10-07T06:09:50.493Z,23.20
2018-10-07T06:12:19.923Z,23.20
2018-10-07T06:15:00.131Z,23.20
2018-10-07T06:17:29.513Z,23.10
2018-10-07T06:19:59.012Z,23.20
2018-10-07T06:22:28.399Z,23.20
2018-10-07T06:24:57.845Z,23.20
2018-10-07T06:27:27.286Z,23.20
2018-10-07T06:29:56.803Z,23.20
2018-10-07T06:32:26.991Z,23.20
2018-10-07T06:34:56.419Z,23.20
2018-10-07T06:37:25.806Z,23.20
2018-10-07T06:39:55.305Z,23.30
2018-10-07T06:42:24.640Z,23.30
2018-10-07T06:44:54.140Z,23.30
2018-10-07T06:47:23.525Z,23.30
2018-10-07T06:49:52.976Z,23.30
2018-10-07T06:52:22.414Z,23.30
2018-10-07T06:54:51.840Z,23.30
2018-10-07T06:57:21.268Z,23.30
2018-10-07T06:59:50.668Z,23.30
2018-10-07T07:02:20.240Z,23.40
2018-10-07T07:04:49.590Z,23.40
2018-10-07T07:07:19.030Z,23.40
2018-10-07T07:09:48.589Z,23.60
2018-10-07T07:12:17.983Z,23.60
2018-10-07T07:14:47.390Z,23.60
2018-10-07T07:17:16.812Z,23.60
2018-10-07T07:19:46.249Z,23.60
2018-10-07T07:22:15.736Z,23.60
2018-10-07T07:24:46.076Z,23.70
2018-10-07T07:27:15.509Z,23.70
2018-10-07T07:29:44.876Z,23.70
2018-10-07T07:32:14.258Z,23.70
2018-10-07T07:34:43.744Z,23.80
2018-10-07T07:37:13.153Z,23.80
2018-10-07T07:39:42.472Z,23.80
2018-10-07T07:42:18.401Z,23.90
2018-10-07T07:44:47.761Z,23.90
2018-10-07T07:47:17.148Z,24.00
2018-10-07T07:49:46.521Z,24.10
2018-10-07T07:52:15.933Z,24.10
2018-10-07T07:54:45.260Z,24.20
2018-10-07T07:57:14.824Z,24.30
2018-10-07T07:59:44.153Z,24.40
2018-10-07T08:02:13.573Z,24.40
2018-10-07T08:04:42.965Z,24.50
2018-10-07T08:07:12.364Z,24.60
2018-10-07T08:09:41.763Z,24.60
2018-10-07T08:12:11.112Z,24.70
2018-10-07T08:14:40.529Z,24.70
2018-10-07T08:17:09.897Z,24.80
2018-10-07T08:19:39.283Z,24.80
2018-10-07T08:22:08.735Z,24.90
2018-10-07T08:24:45.416Z,24.90
2018-10-07T08:27:14.900Z,24.90
2018-10-07T08:29:44.393Z,25.00
2018-10-07T08:32:13.848Z,25.10
2018-10-07T08:34:43.345Z,25.10
2018-10-07T08:37:12.796Z,25.10
2018-10-07T08:39:42.195Z,25.20
2018-10-07T08:42:11.715Z,25.10
2018-10-07T08:44:41.093Z,25.20
2018-10-07T08:47:10.544Z,25.30
2018-10-07T08:49:39.923Z,25.40
2018-10-07T08:52:09.378Z,25.40
2018-10-07T08:54:38.743Z,25.50
2018-10-07T08:57:08.276Z,25.60
2018-10-07T08:59:37.687Z,25.70
2018-10-07T09:02:07.051Z,25.70
2018-10-07T09:04:36.459Z,25.80
2018-10-07T09:07:05.925Z,25.80
2018-10-07T09:09:35.891Z,25.80
2018-10-07T09:12:05.318Z,25.70
2018-10-07T09:14:34.792Z,25.70
2018-10-07T09:17:04.110Z,25.70
2018-10-07T09:19:33.516Z,25.70
2018-10-07T09:22:02.872Z,25.70
2018-10-07T09:24:32.275Z,25.70
2018-10-07T09:27:01.747Z,25.80
2018-10-07T09:29:31.350Z,25.80
2018-10-07T09:32:02.565Z,25.90
2018-10-07T09:34:31.964Z,26.00
2018-10-07T09:37:01.370Z,26.00
2018-10-07T09:39:30.824Z,26.10
2018-10-07T09:42:00.192Z,26.10
2018-10-07T09:44:29.592Z,26.10
2018-10-07T09:46:59.306Z,26.20
2018-10-07T09:49:28.927Z,26.20
2018-10-07T09:51:58.299Z,26.30
2018-10-07T09:54:27.740Z,26.30
2018-10-07T09:56:57.158Z,26.30
2018-10-07T09:59:26.615Z,26.30
2018-10-07T10:01:56.275Z,26.40
2018-10-07T10:04:25.691Z,26.30
2018-10-07T10:06:55.112Z,26.40
2018-10-07T10:09:24.619Z,26.30
2018-10-07T10:11:54.140Z,26.30
2018-10-07T10:14:23.570Z,26.30
2018-10-07T10:16:59.384Z,26.30
2018-10-07T10:19:36.184Z,26.30
2018-10-07T10:22:12.761Z,26.30
2018-10-07T10:34:53.701Z,26.40
2018-10-07T10:37:36.197Z,26.30
2018-10-07T10:40:08.257Z,26.20
2018-10-07T10:42:44.852Z,26.20
2018-10-07T10:45:23.157Z,26.20
2018-10-07T10:47:57.427Z,26.20
2018-10-07T10:50:33.973Z,26.20
2018-10-07T10:53:26.032Z,26.20
2018-10-07T10:56:06.580Z,26.10
2018-10-07T10:58:48.452Z,26.10
2018-10-07T11:01:24.323Z,26.10
2018-10-07T11:04:00.837Z,26.00
2018-10-07T11:06:40.700Z,26.00
2018-10-07T11:09:19.090Z,25.90
2018-10-07T11:11:59.397Z,25.80
2018-10-07T11:14:37.085Z,25.70
2018-10-07T11:17:18.503Z,25.70
2018-10-07T11:19:55.010Z,25.70
2018-10-07T11:22:35.211Z,25.70
2018-10-07T11:25:14.816Z,25.70
2018-10-07T11:27:56.930Z,25.80
2018-10-07T11:31:42.532Z,25.80
2018-10-07T11:34:21.640Z,25.80
2018-10-07T11:36:57.132Z,25.90
2018-10-07T11:40:40.950Z,25.90
2018-10-07T11:43:28.487Z,25.90
2018-10-07T11:47:06.684Z,25.90
2018-10-07T11:49:45.492Z,26.00
2018-10-07T11:52:55.041Z,26.10
2018-10-07T11:55:24.507Z,26.20
2018-10-07T11:57:54.017Z,26.30
2018-10-07T12:00:23.461Z,26.30
2018-10-07T12:02:52.919Z,26.30
2018-10-07T12:05:22.228Z,26.30
2018-10-07T12:07:52.016Z,26.30
2018-10-07T12:10:21.443Z,26.40
2018-10-07T12:12:50.818Z,26.40
2018-10-07T12:15:20.145Z,26.50
2018-10-07T12:17:49.534Z,26.50
2018-10-07T12:20:19.043Z,26.50
2018-10-07T12:22:48.428Z,26.60
2018-10-07T12:25:17.781Z,26.60
2018-10-07T12:27:47.210Z,26.60
2018-10-07T12:30:16.612Z,26.60
2018-10-07T12:32:45.997Z,26.60
2018-10-07T12:35:15.360Z,26.60
2018-10-07T12:37:44.821Z,26.60
2018-10-07T12:40:14.202Z,26.50
2018-10-07T12:42:43.573Z,26.40
2018-10-07T12:45:12.920Z,26.30
2018-10-07T12:47:42.298Z,26.20
2018-10-07T12:50:11.682Z,26.10
2018-10-07T12:52:41.840Z,26.00
2018-10-07T12:55:11.227Z,25.90
2018-10-07T12:57:40.705Z,25.90
2018-10-07T13:00:10.107Z,25.90
2018-10-07T13:02:39.444Z,25.80
2018-10-07T13:05:08.852Z,25.80
2018-10-07T13:07:38.209Z,25.70
2018-10-07T13:10:07.684Z,25.80
2018-10-07T13:12:37.010Z,25.80
2018-10-07T13:15:06.385Z,25.80
2018-10-07T13:17:35.814Z,25.80
2018-10-07T13:20:05.500Z,25.80
2018-10-07T13:22:34.875Z,25.80
2018-10-07T13:25:04.258Z,25.70
2018-10-07T13:27:33.573Z,25.70
2018-10-07T13:30:02.933Z,25.70
2018-10-07T13:32:32.299Z,25.70
2018-10-07T13:35:01.666Z,25.70
2018-10-07T13:37:31.025Z,25.80
2018-10-07T13:40:01.176Z,25.80
2018-10-07T13:42:30.549Z,25.80
2018-10-07T13:44:59.935Z,25.90
2018-10-07T13:47:29.292Z,25.90
2018-10-07T13:49:58.706Z,25.80
2018-10-07T13:52:28.035Z,25.90
2018-10-07T13:54:57.444Z,25.80
2018-10-07T13:57:26.924Z,25.80
2018-10-07T13:59:56.309Z,25.90
2018-10-07T14:02:25.675Z,25.90
2018-10-07T14:04:55.050Z,25.90
2018-10-07T14:07:24.409Z,25.80
2018-10-07T14:09:53.753Z,25.80
2018-10-07T14:12:23.075Z,25.90
2018-10-07T14:14:54.009Z,25.90
2018-10-07T14:17:23.335Z,25.90
2018-10-07T14:19:52.744Z,25.90
2018-10-07T14:22:22.064Z,25.90
2018-10-07T14:24:51.499Z,25.90
2018-10-07T14:27:20.856Z,26.00
2018-10-07T14:29:50.283Z,26.00
2018-10-07T14:32:19.773Z,26.00
2018-10-07T14:34:49.185Z,26.00
2018-10-07T14:37:18.607Z,26.00
2018-10-07T14:39:47.917Z,26.10
2018-10-07T14:42:17.292Z,26.10
2018-10-07T14:44:46.700Z,26.20
2018-10-07T14:47:16.148Z,26.20
2018-10-07T14:49:45.568Z,26.20
2018-10-07T14:52:15.051Z,26.30
2018-10-07T14:54:44.397Z,26.40
2018-10-07T14:57:13.762Z,26.40
2018-10-07T14:59:43.120Z,26.40
2018-10-07T15:02:12.624Z,26.50
2018-10-07T15:04:42.129Z,26.60
2018-10-07T15:07:11.503Z,26.60
2018-10-07T15:09:40.881Z,26.60
2018-10-07T15:12:10.215Z,26.60
2018-10-07T15:14:39.620Z,26.60
2018-10-07T15:17:09.099Z,26.70
2018-10-07T15:19:38.505Z,26.80
2018-10-07T15:22:07.892Z,26.80
2018-10-07T15:24:37.205Z,26.90
2018-10-07T15:27:06.613Z,27.00
2018-10-07T15:29:35.955Z,27.00
2018-10-07T15:32:05.377Z,27.10
2018-10-07T15:34:35.851Z,27.10
2018-10-07T15:37:05.285Z,27.20
2018-10-07T15:39:34.751Z,27.30
2018-10-07T15:42:04.188Z,27.30
2018-10-07T15:44:33.547Z,27.30
2018-10-07T15:47:02.948Z,27.30
2018-10-07T15:49:32.293Z,27.40
2018-10-07T15:52:08.318Z,27.40
2018-10-07T15:54:37.667Z,27.50
2018-10-07T15:57:07.100Z,27.50
2018-10-07T15:59:36.586Z,27.60
2018-10-07T16:02:06.137Z,27.60
2018-10-07T16:04:35.647Z,27.60
2018-10-07T16:07:05.045Z,27.60
2018-10-07T16:09:34.508Z,27.60
2018-10-07T16:12:03.883Z,27.70
2018-10-07T16:14:33.252Z,27.70
2018-10-07T16:17:02.610Z,27.70
2018-10-07T16:19:32.010Z,27.70
2018-10-07T16:22:01.387Z,27.80
2018-10-07T16:24:30.780Z,27.80
2018-10-07T16:27:00.181Z,27.80
2018-10-07T16:29:29.715Z,27.80
2018-10-07T16:31:59.116Z,27.80
2018-10-07T16:34:28.511Z,27.80
2018-10-07T16:36:57.880Z,27.80
2018-10-07T16:39:27.303Z,27.80
2018-10-07T16:41:56.720Z,27.70
2018-10-07T16:44:26.145Z,27.70
2018-10-07T16:46:55.565Z,27.60
2018-10-07T16:49:24.957Z,27.60
2018-10-07T16:51:54.340Z,27.60
2018-10-07T16:54:23.788Z,27.50
2018-10-07T16:56:53.117Z,27.50
2018-10-07T16:59:22.559Z,27.50
2018-10-07T17:01:51.946Z,27.40
2018-10-07T17:04:21.354Z,27.40
2018-10-07T17:06:50.734Z,27.40
2018-10-07T17:09:20.188Z,27.30
2018-10-07T17:11:49.577Z,27.30
2018-10-07T17:14:18.945Z,27.30
2018-10-07T17:16:48.344Z,27.30
2018-10-07T17:19:17.724Z,27.20
2018-10-07T17:21:47.048Z,27.20
2018-10-07T17:24:16.413Z,27.20
2018-10-07T17:26:45.849Z,27.20
2018-10-07T17:29:15.200Z,27.10
2018-10-07T17:31:44.567Z,27.20
2018-10-07T17:34:13.933Z,27.10
2018-10-07T17:36:43.323Z,27.10
2018-10-07T17:39:13.015Z,27.10
2018-10-07T17:41:42.513Z,27.10
2018-10-07T17:44:11.921Z,27.10
2018-10-07T17:46:41.321Z,27.10
2018-10-07T17:49:10.878Z,27.10
2018-10-07T17:51:40.327Z,27.10
2018-10-07T17:54:09.714Z,27.10
2018-10-07T17:56:39.073Z,27.00
2018-10-07T17:59:08.436Z,27.00
2018-10-07T18:01:37.805Z,27.00
2018-10-07T18:04:07.360Z,27.00
2018-10-07T18:06:36.963Z,27.00
2018-10-07T18:09:09.125Z,27.00
2018-10-07T18:11:38.521Z,27.00
2018-10-07T18:14:07.934Z,27.00
2018-10-07T18:16:37.423Z,26.90
2018-10-07T18:19:07.528Z,26.90
2018-10-07T18:21:36.969Z,26.90
2018-10-07T18:24:06.331Z,26.90
2018-10-07T18:26:35.792Z,26.90
2018-10-07T18:29:05.168Z,26.80
2018-10-07T18:31:34.532Z,26.80
2018-10-07T18:34:03.910Z,26.80
2018-10-07T18:36:33.339Z,26.80
2018-10-07T18:39:02.907Z,26.80
2018-10-07T18:41:32.455Z,26.80
2018-10-07T18:44:08.921Z,26.80
2018-10-07T18:46:39.652Z,26.80
2018-10-07T18:49:09.169Z,26.70
2018-10-07T18:51:39.285Z,26.70
2018-10-07T18:54:08.802Z,26.70
2018-10-07T18:56:38.417Z,26.70
2018-10-07T18:59:07.799Z,26.70
2018-10-07T19:01:37.164Z,26.70
2018-10-07T19:04:06.586Z,26.70
2018-10-07T19:06:36.410Z,26.70
2018-10-07T19:09:08.612Z,26.70
2018-10-07T19:11:38.058Z,26.70
2018-10-07T19:14:07.642Z,26.60
2018-10-07T19:16:37.049Z,26.70
2018-10-07T19:19:06.566Z,26.60
2018-10-07T19:21:35.946Z,26.60
2018-10-07T19:24:05.338Z,26.60
2018-10-07T19:26:34.789Z,26.60
2018-10-07T19:29:04.278Z,26.60
2018-10-07T19:31:33.802Z,26.60
2018-10-07T19:34:03.176Z,26.60
2018-10-07T19:36:32.509Z,26.60
2018-10-07T19:39:01.930Z,26.60
2018-10-07T19:41:31.353Z,26.60
2018-10-07T19:44:00.960Z,26.60
2018-10-07T19:46:30.421Z,26.50
2018-10-07T19:48:59.791Z,26.60
2018-10-07T19:51:29.217Z,26.50
2018-10-07T19:53:58.698Z,26.60
2018-10-07T19:56:28.012Z,26.50
2018-10-07T19:58:57.636Z,26.50
2018-10-07T20:01:26.979Z,26.50
2018-10-07T20:03:56.351Z,26.50
2018-10-07T20:06:25.744Z,26.50
2018-10-07T20:08:55.167Z,26.50
2018-10-07T20:11:24.517Z,26.50
2018-10-07T20:13:53.921Z,26.50
2018-10-07T20:16:23.264Z,26.50
2018-10-07T20:18:52.660Z,26.50
2018-10-07T20:21:22.096Z,26.50
2018-10-07T20:23:51.444Z,26.50
2018-10-07T20:26:20.895Z,26.50
2018-10-07T20:28:50.332Z,26.40
2018-10-07T20:31:19.781Z,26.50
2018-10-07T20:33:49.213Z,26.40
2018-10-07T20:36:23.210Z,26.40
2018-10-07T20:38:52.724Z,26.40
2018-10-07T20:41:22.100Z,26.30
2018-10-07T20:43:51.497Z,26.30
2018-10-07T20:46:20.928Z,26.30
2018-10-07T20:48:50.345Z,26.30
2018-10-07T20:51:19.816Z,26.30
2018-10-07T20:53:49.201Z,26.30
2018-10-07T20:56:18.532Z,26.30
2018-10-07T20:58:47.945Z,26.30
2018-10-07T21:01:17.361Z,26.30
2018-10-07T21:03:46.736Z,26.30
2018-10-07T21:06:16.188Z,26.30
2018-10-07T21:08:45.579Z,26.30
2018-10-07T21:11:15.021Z,26.30
2018-10-07T21:13:44.496Z,26.30
2018-10-07T21:16:13.828Z,26.20
2018-10-07T21:18:43.216Z,26.20
2018-10-07T21:21:12.698Z,26.20
2018-10-07T21:23:42.147Z,26.20
2018-10-07T21:26:11.528Z,26.20
2018-10-07T21:28:41.034Z,26.20
2018-10-07T21:31:10.638Z,26.20
2018-10-07T21:33:39.996Z,26.20
2018-10-07T21:36:09.387Z,26.20
2018-10-07T21:38:38.856Z,26.20
2018-10-07T21:41:08.211Z,26.10
2018-10-07T21:43:37.584Z,26.10
2018-10-07T21:46:06.948Z,26.10
2018-10-07T21:48:36.296Z,26.10
2018-10-07T21:51:05.627Z,26.10
2018-10-07T21:53:34.992Z,26.10
2018-10-07T21:56:04.405Z,26.20
2018-10-07T21:58:33.741Z,26.10
2018-10-07T22:01:03.144Z,26.10
2018-10-07T22:03:32.504Z,26.10
2018-10-07T22:06:01.857Z,26.10
2018-10-07T22:08:31.272Z,26.10
2018-10-07T22:11:00.756Z,26.10
2018-10-07T22:13:30.120Z,26.00
2018-10-07T22:15:59.549Z,26.00
2018-10-07T22:18:28.853Z,26.00
2018-10-07T22:20:58.229Z,26.00
2018-10-07T22:23:27.641Z,25.90
2018-10-07T22:25:57.056Z,25.90
2018-10-07T22:28:26.431Z,25.90
2018-10-07T22:30:55.805Z,25.90
2018-10-07T22:33:25.149Z,25.90
2018-10-07T22:35:54.497Z,25.90
2018-10-07T22:38:23.868Z,25.90
2018-10-07T22:40:53.183Z,25.80
2018-10-07T22:43:22.525Z,25.90
2018-10-07T22:45:51.933Z,25.80
2018-10-07T22:48:21.339Z,25.80
2018-10-07T22:50:50.670Z,25.90
2018-10-07T22:53:20.096Z,25.80
2018-10-07T22:55:49.496Z,25.80
2018-10-07T22:58:18.812Z,25.80
2018-10-07T23:00:48.311Z,25.80
2018-10-07T23:03:17.691Z,25.70
2018-10-07T23:05:47.076Z,25.70
2018-10-07T23:08:16.488Z,25.70
2018-10-07T23:10:45.852Z,25.70
2018-10-07T23:13:15.236Z,25.70
2018-10-07T23:15:44.623Z,25.70
2018-10-07T23:18:13.985Z,25.60
2018-10-07T23:20:43.388Z,25.70
2018-10-07T23:23:12.745Z,25.70
2018-10-07T23:25:42.077Z,25.70
2018-10-07T23:28:11.431Z,25.70
2018-10-07T23:30:40.820Z,25.70
2018-10-07T23:33:10.192Z,25.60
2018-10-07T23:35:39.547Z,25.70
2018-10-07T23:38:08.912Z,25.60
2018-10-07T23:40:38.359Z,25.60
2018-10-07T23:43:07.912Z,25.60
2018-10-07T23:45:37.262Z,25.60
2018-10-07T23:48:06.659Z,25.60
2018-10-07T23:50:36.061Z,25.60
2018-10-07T23:53:05.477Z,25.60
2018-10-07T23:55:34.848Z,25.60
2018-10-07T23:58:04.265Z,25.60
